createdAt,value
2018-09-21T00:01:07.442Z,25.40
2018-09-21T00:02:24.649Z,25.40
2018-09-21T00:03:46.969Z,25.40
2018-09-21T00:05:04.338Z,25.30
2018-09-21T00:06:25.203Z,25.30
2018-09-21T00:07:43.526Z,25.30
2018-09-21T00:09:02.292Z,25.40
2018-09-21T00:10:19.661Z,25.40
2018-09-21T00:11:38.361Z,25.40
2018-09-21T00:13:00.297Z,25.40
2018-09-21T00:14:20.146Z,25.40
2018-09-21T00:15:37.756Z,25.30
2018-09-21T00:16:56.918Z,25.30
2018-09-21T00:18:14.864Z,25.30
2018-09-21T00:19:32.513Z,25.40
2018-09-21T00:20:50.597Z,25.30
2018-09-21T00:22:08.594Z,25.30
2018-09-21T00:23:26.647Z,25.30
2018-09-21T00:24:45.284Z,25.30
2018-09-21T00:26:04.493Z,25.40
2018-09-21T00:27:23.583Z,25.30
2018-09-21T00:28:42.168Z,25.30
2018-09-21T00:30:00.960Z,25.30
2018-09-21T00:31:19.377Z,25.30
2018-09-21T00:32:37.020Z,25.30
2018-09-21T00:33:56.349Z,25.30
2018-09-21T00:35:13.574Z,25.40
2018-09-21T00:36:30.912Z,25.40
2018-09-21T00:37:48.225Z,25.40
2018-09-21T00:39:08.894Z,25.40
2018-09-21T00:40:28.680Z,25.40
2018-09-21T00:41:47.435Z,25.40
2018-09-21T00:43:07.235Z,25.40
2018-09-21T00:44:25.659Z,25.40
2018-09-21T00:45:48.053Z,25.40
2018-09-21T00:47:06.062Z,25.40
2018-09-21T00:48:25.641Z,25.40
2018-09-21T00:49:57.800Z,25.40
2018-09-21T00:51:15.329Z,25.40
2018-09-21T00:52:33.791Z,25.40
2018-09-21T00:53:54.671Z,25.40
2018-09-21T00:55:12.463Z,25.30
2018-09-21T00:56:32.160Z,25.30
2018-09-21T00:59:12.523Z,25.30
2018-09-21T01:00:31.646Z,25.40
2018-09-21T01:01:53.244Z,25.40
2018-09-21T01:03:11.994Z,25.40
2018-09-21T01:04:32.933Z,25.30
2018-09-21T01:05:51.804Z,25.30
2018-09-21T01:07:10.010Z,25.30
2018-09-21T01:08:27.882Z,25.30
2018-09-21T01:09:46.180Z,25.20
2018-09-21T01:11:04.368Z,25.20
2018-09-21T01:12:22.038Z,25.20
2018-09-21T01:13:40.525Z,25.20
2018-09-21T01:14:58.573Z,25.20
2018-09-21T01:16:16.941Z,25.20
2018-09-21T01:17:33.947Z,25.20
2018-09-21T01:18:52.760Z,25.20
2018-09-21T01:20:10.559Z,25.30
2018-09-21T01:21:30.685Z,25.20
2018-09-21T01:22:48.069Z,25.20
2018-09-21T01:24:06.742Z,25.20
2018-09-21T01:25:25.739Z,25.10
2018-09-21T01:26:44.544Z,25.20
2018-09-21T01:28:06.109Z,25.20
2018-09-21T01:29:30.984Z,25.10
2018-09-21T01:30:49.558Z,25.10
2018-09-21T01:32:09.854Z,25.10
2018-09-21T01:33:28.467Z,25.10
2018-09-21T01:34:48.502Z,25.10
2018-09-21T01:36:06.621Z,25.10
2018-09-21T01:37:25.654Z,25.10
2018-09-21T01:38:44.417Z,25.10
2018-09-21T01:40:02.858Z,25.10
2018-09-21T01:41:22.332Z,25.10
2018-09-21T01:42:40.304Z,25.00
2018-09-21T01:43:59.395Z,25.00
2018-09-21T01:45:17.428Z,25.00
2018-09-21T01:46:35.957Z,25.00
2018-09-21T01:48:01.218Z,25.00
2018-09-21T01:49:18.659Z,25.00
2018-09-21T01:50:37.324Z,25.00
2018-09-21T01:51:56.490Z,25.00
2018-09-21T01:53:14.537Z,25.00
2018-09-21T01:54:32.829Z,25.00
2018-09-21T01:55:50.459Z,25.00
2018-09-21T01:57:09.085Z,25.00
2018-09-21T01:58:29.173Z,25.00
2018-09-21T01:59:46.888Z,25.00
2018-09-21T02:01:06.842Z,25.10
2018-09-21T02:02:25.107Z,25.10
2018-09-21T02:03:44.229Z,25.10
2018-09-21T02:05:02.026Z,25.10
2018-09-21T02:06:19.659Z,25.10
2018-09-21T02:07:38.171Z,25.10
2018-09-21T02:08:56.420Z,25.10
2018-09-21T02:10:13.896Z,25.20
2018-09-21T02:11:31.894Z,25.10
2018-09-21T02:12:50.009Z,25.20
2018-09-21T02:14:08.878Z,25.20
2018-09-21T02:15:28.446Z,25.20
2018-09-21T02:16:47.836Z,25.30
2018-09-21T02:18:06.341Z,25.20
2018-09-21T02:19:24.166Z,25.20
2018-09-21T02:20:42.900Z,25.20
2018-09-21T02:22:02.241Z,25.20
2018-09-21T02:23:25.038Z,25.20
2018-09-21T02:24:43.795Z,25.20
2018-09-21T02:26:04.802Z,25.20
2018-09-21T02:27:22.414Z,25.20
2018-09-21T02:28:40.170Z,25.20
2018-09-21T02:29:57.593Z,25.20
2018-09-21T02:31:14.979Z,25.20
2018-09-21T02:32:34.398Z,25.20
2018-09-21T02:33:52.251Z,25.20
2018-09-21T02:35:10.446Z,25.20
2018-09-21T02:36:28.055Z,25.20
2018-09-21T02:37:45.931Z,25.30
2018-09-21T02:39:03.841Z,25.30
2018-09-21T02:40:21.738Z,25.30
2018-09-21T02:41:40.228Z,25.30
2018-09-21T02:42:57.177Z,25.30
2018-09-21T02:44:15.453Z,25.30
2018-09-21T02:45:39.301Z,25.30
2018-09-21T02:46:57.676Z,25.30
2018-09-21T02:48:14.715Z,25.30
2018-09-21T02:49:32.112Z,25.30
2018-09-21T02:50:49.781Z,25.30
2018-09-21T02:52:07.815Z,25.30
2018-09-21T02:53:26.380Z,25.20
2018-09-21T02:54:43.530Z,25.20
2018-09-21T02:56:01.413Z,25.20
2018-09-21T02:57:19.178Z,25.20
2018-09-21T02:58:38.148Z,25.20
2018-09-21T02:59:55.732Z,25.10
2018-09-21T03:01:12.911Z,25.10
2018-09-21T03:02:30.201Z,25.10
2018-09-21T03:03:51.006Z,25.10
2018-09-21T03:05:09.898Z,25.10
2018-09-21T03:06:27.776Z,25.10
2018-09-21T03:07:45.318Z,25.10
2018-09-21T03:09:04.227Z,25.10
2018-09-21T03:10:21.245Z,25.10
2018-09-21T03:11:39.343Z,25.10
2018-09-21T03:12:57.029Z,25.10
2018-09-21T03:14:17.277Z,25.10
2018-09-21T03:15:37.643Z,25.10
2018-09-21T03:16:55.971Z,25.10
2018-09-21T03:18:15.203Z,25.10
2018-09-21T03:19:33.235Z,25.10
2018-09-21T03:20:51.791Z,25.10
2018-09-21T03:22:09.866Z,25.10
2018-09-21T03:23:28.092Z,25.10
2018-09-21T03:24:46.542Z,25.10
2018-09-21T03:26:05.419Z,25.10
2018-09-21T03:27:24.225Z,25.00
2018-09-21T03:28:43.734Z,25.10
2018-09-21T03:30:03.104Z,25.10
2018-09-21T03:31:20.830Z,25.10
2018-09-21T03:32:39.160Z,25.00
2018-09-21T03:33:56.575Z,25.10
2018-09-21T03:35:14.823Z,25.10
2018-09-21T03:36:32.249Z,25.10
2018-09-21T03:37:49.885Z,25.00
2018-09-21T03:39:11.110Z,25.00
2018-09-21T03:40:29.787Z,25.00
2018-09-21T03:41:48.155Z,25.00
2018-09-21T03:43:05.878Z,25.00
2018-09-21T03:44:23.451Z,25.00
2018-09-21T03:45:41.339Z,25.00
2018-09-21T03:46:59.285Z,25.00
2018-09-21T03:48:18.457Z,25.00
2018-09-21T03:49:37.034Z,25.00
2018-09-21T03:50:54.916Z,24.90
2018-09-21T03:52:13.779Z,24.90
2018-09-21T03:53:32.196Z,24.90
2018-09-21T03:54:49.863Z,24.90
2018-09-21T03:56:09.822Z,24.90
2018-09-21T03:57:28.103Z,24.90
2018-09-21T03:58:48.898Z,24.90
2018-09-21T04:00:07.958Z,25.00
2018-09-21T04:01:25.376Z,25.00
2018-09-21T04:02:42.709Z,24.90
2018-09-21T04:04:07.300Z,24.90
2018-09-21T04:05:26.852Z,24.90
2018-09-21T04:06:45.224Z,24.90
2018-09-21T04:08:03.347Z,25.00
2018-09-21T04:09:21.767Z,24.90
2018-09-21T04:10:38.968Z,25.00
2018-09-21T04:11:56.967Z,25.00
2018-09-21T04:13:17.220Z,25.00
2018-09-21T04:14:38.430Z,25.00
2018-09-21T04:15:55.970Z,25.00
2018-09-21T04:17:12.939Z,25.00
2018-09-21T04:18:31.079Z,25.00
2018-09-21T04:19:47.951Z,25.00
2018-09-21T04:21:08.378Z,25.00
2018-09-21T04:22:28.609Z,25.00
2018-09-21T04:23:49.025Z,25.00
2018-09-21T04:25:10.397Z,25.00
2018-09-21T04:26:28.924Z,25.00
2018-09-21T04:27:45.725Z,25.00
2018-09-21T04:29:07.289Z,25.00
2018-09-21T04:30:25.993Z,25.00
2018-09-21T04:31:50.201Z,25.00
2018-09-21T04:33:07.830Z,25.00
2018-09-21T04:34:26.756Z,25.00
2018-09-21T04:35:46.303Z,25.00
2018-09-21T04:37:03.957Z,25.00
2018-09-21T04:38:24.465Z,25.00
2018-09-21T04:39:42.065Z,24.90
2018-09-21T04:40:59.338Z,24.90
2018-09-21T04:42:18.556Z,24.90
2018-09-21T04:43:37.573Z,24.80
2018-09-21T04:44:54.325Z,24.80
2018-09-21T04:46:12.337Z,24.80
2018-09-21T04:47:29.841Z,24.90
2018-09-21T04:48:46.742Z,24.90
2018-09-21T04:50:04.921Z,24.90
2018-09-21T04:51:24.035Z,24.90
2018-09-21T04:52:45.558Z,24.90
2018-09-21T04:54:08.732Z,24.90
2018-09-21T04:55:30.351Z,24.90
2018-09-21T04:56:52.256Z,24.90
2018-09-21T04:58:09.329Z,25.00
2018-09-21T04:59:26.948Z,24.90
2018-09-21T05:00:44.754Z,24.90
2018-09-21T05:02:04.223Z,24.90
2018-09-21T05:03:22.212Z,24.90
2018-09-21T05:04:41.104Z,24.90
2018-09-21T05:06:22.732Z,24.90
2018-09-21T05:07:42.724Z,24.90
2018-09-21T05:09:00.190Z,24.90
2018-09-21T05:10:19.047Z,24.90
2018-09-21T05:11:38.707Z,24.90
2018-09-21T05:13:04.122Z,24.90
2018-09-21T05:14:23.780Z,24.90
2018-09-21T05:15:41.470Z,25.00
2018-09-21T05:16:59.117Z,25.00
2018-09-21T05:18:16.714Z,25.00
2018-09-21T05:19:34.411Z,25.00
2018-09-21T05:20:54.096Z,25.00
2018-09-21T05:22:11.487Z,25.00
2018-09-21T05:23:29.236Z,24.90
2018-09-21T05:24:47.668Z,25.00
2018-09-21T05:26:04.858Z,25.00
2018-09-21T05:27:22.646Z,25.00
2018-09-21T05:28:40.098Z,25.00
2018-09-21T05:29:58.033Z,25.00
2018-09-21T05:31:16.496Z,25.00
2018-09-21T05:32:35.787Z,25.00
2018-09-21T05:33:53.301Z,25.00
2018-09-21T05:35:11.431Z,25.00
2018-09-21T05:36:30.634Z,25.00
2018-09-21T05:37:48.610Z,25.00
2018-09-21T05:39:11.873Z,25.00
2018-09-21T05:40:28.951Z,24.90
2018-09-21T05:41:47.778Z,24.90
2018-09-21T05:43:10.573Z,24.90
2018-09-21T05:44:28.346Z,24.80
2018-09-21T05:45:46.064Z,24.90
2018-09-21T05:47:12.218Z,24.80
2018-09-21T05:48:30.960Z,24.90
2018-09-21T05:49:48.599Z,24.80
2018-09-21T05:51:06.748Z,24.80
2018-09-21T05:52:24.514Z,24.80
2018-09-21T05:53:42.151Z,24.70
2018-09-21T05:54:59.415Z,24.70
2018-09-21T05:56:19.198Z,24.70
2018-09-21T05:57:36.548Z,24.70
2018-09-21T05:58:54.623Z,24.70
2018-09-21T06:00:15.646Z,24.70
2018-09-21T06:01:32.609Z,24.70
2018-09-21T06:02:50.261Z,24.80
2018-09-21T06:04:07.249Z,24.80
2018-09-21T06:05:24.759Z,24.70
2018-09-21T06:06:43.471Z,24.60
2018-09-21T06:08:00.354Z,24.70
2018-09-21T06:09:18.690Z,24.70
2018-09-21T06:10:36.366Z,24.70
2018-09-21T06:11:53.705Z,24.70
2018-09-21T06:13:11.660Z,24.70
2018-09-21T06:14:29.876Z,24.70
2018-09-21T06:15:47.861Z,24.70
2018-09-21T06:17:04.988Z,24.80
2018-09-21T06:19:47.638Z,24.80
2018-09-21T06:21:05.052Z,24.80
2018-09-21T06:22:22.281Z,24.80
2018-09-21T06:23:40.670Z,24.80
2018-09-21T06:24:57.742Z,24.80
2018-09-21T06:26:15.562Z,24.80
2018-09-21T06:27:35.659Z,24.70
2018-09-21T06:28:55.273Z,24.70
2018-09-21T06:30:14.451Z,24.70
2018-09-21T06:31:32.420Z,24.70
2018-09-21T06:32:49.330Z,24.70
2018-09-21T06:34:06.186Z,24.70
2018-09-21T06:35:23.734Z,24.70
2018-09-21T06:36:43.231Z,24.70
2018-09-21T06:38:00.219Z,24.70
2018-09-21T06:39:25.297Z,24.70
2018-09-21T06:40:42.676Z,24.70
2018-09-21T06:42:03.069Z,24.80
2018-09-21T06:43:21.292Z,24.80
2018-09-21T06:44:38.764Z,24.80
2018-09-21T06:45:55.652Z,24.80
2018-09-21T06:47:15.479Z,24.80
2018-09-21T06:48:33.365Z,24.80
2018-09-21T06:49:51.602Z,24.80
2018-09-21T06:51:08.838Z,24.80
2018-09-21T06:52:27.023Z,24.80
2018-09-21T06:53:44.500Z,24.80
2018-09-21T06:55:03.506Z,24.70
2018-09-21T06:56:20.667Z,24.80
2018-09-21T06:57:37.567Z,24.80
2018-09-21T06:58:55.690Z,24.80
2018-09-21T07:00:18.622Z,24.80
2018-09-21T07:01:46.046Z,24.80
2018-09-21T07:03:04.684Z,24.80
2018-09-21T07:04:22.163Z,24.80
2018-09-21T07:05:43.154Z,24.80
2018-09-21T07:07:06.625Z,24.80
2018-09-21T07:08:24.809Z,24.70
2018-09-21T07:09:42.529Z,24.80
2018-09-21T07:11:02.505Z,24.80
2018-09-21T07:12:21.904Z,24.80
2018-09-21T07:13:45.619Z,24.80
2018-09-21T07:15:06.314Z,24.70
2018-09-21T07:16:23.706Z,24.70
2018-09-21T07:17:44.097Z,24.80
2018-09-21T07:19:00.920Z,24.80
2018-09-21T07:20:17.749Z,24.80
2018-09-21T07:21:36.920Z,24.80
2018-09-21T07:22:57.363Z,24.80
2018-09-21T07:24:16.082Z,24.80
2018-09-21T07:25:35.949Z,24.80
2018-09-21T07:26:56.325Z,24.80
2018-09-21T07:28:13.323Z,24.80
2018-09-21T07:29:32.185Z,24.80
2018-09-21T07:30:51.103Z,24.80
2018-09-21T07:32:09.879Z,24.70
2018-09-21T07:33:27.349Z,24.70
2018-09-21T07:34:45.980Z,24.80
2018-09-21T07:36:05.331Z,24.80
2018-09-21T07:37:22.441Z,24.80
2018-09-21T07:38:40.225Z,24.80
2018-09-21T07:39:57.882Z,24.80
2018-09-21T07:41:16.610Z,24.80
2018-09-21T07:42:38.076Z,24.80
2018-09-21T07:43:55.225Z,24.80
2018-09-21T07:45:13.623Z,24.80
2018-09-21T07:46:31.309Z,24.80
2018-09-21T07:47:51.008Z,24.80
2018-09-21T07:49:10.316Z,24.80
2018-09-21T07:50:27.599Z,24.80
2018-09-21T07:51:45.129Z,24.80
2018-09-21T07:53:03.595Z,24.80
2018-09-21T07:54:23.440Z,24.80
2018-09-21T07:55:41.263Z,24.80
2018-09-21T07:56:59.337Z,24.80
2018-09-21T07:58:18.983Z,24.80
2018-09-21T07:59:36.608Z,24.80
2018-09-21T08:00:54.660Z,24.80
2018-09-21T08:02:13.455Z,24.80
2018-09-21T08:03:31.231Z,24.90
2018-09-21T08:04:53.738Z,24.90
2018-09-21T08:06:12.686Z,24.80
2018-09-21T08:07:30.477Z,24.80
2018-09-21T08:08:51.051Z,24.90
2018-09-21T08:10:08.389Z,24.80
2018-09-21T08:11:25.919Z,24.80
2018-09-21T08:12:45.794Z,24.90
2018-09-21T08:14:04.334Z,24.90
2018-09-21T08:15:21.244Z,24.90
2018-09-21T08:16:38.732Z,24.90
2018-09-21T08:17:56.962Z,24.90
2018-09-21T08:19:17.290Z,24.90
2018-09-21T08:20:37.820Z,24.90
2018-09-21T08:21:57.025Z,24.90
2018-09-21T08:23:14.313Z,24.90
2018-09-21T08:24:32.162Z,24.90
2018-09-21T08:25:50.623Z,25.00
2018-09-21T08:28:38.705Z,25.00
2018-09-21T08:29:56.613Z,24.90
2018-09-21T08:31:14.865Z,24.90
2018-09-21T08:32:43.525Z,24.90
2018-09-21T08:34:02.887Z,24.90
2018-09-21T08:35:21.227Z,25.00
2018-09-21T08:36:39.748Z,24.90
2018-09-21T08:37:57.559Z,25.00
2018-09-21T08:39:14.282Z,25.00
2018-09-21T08:40:33.078Z,25.00
2018-09-21T08:41:50.404Z,25.00
2018-09-21T08:43:08.268Z,25.00
2018-09-21T08:44:25.290Z,25.00
2018-09-21T08:45:43.538Z,25.00
2018-09-21T08:48:26.713Z,25.10
2018-09-21T08:49:44.817Z,25.10
2018-09-21T08:51:03.650Z,25.00
2018-09-21T08:52:21.432Z,25.10
2018-09-21T08:53:39.622Z,25.10
2018-09-21T08:54:57.847Z,25.10
2018-09-21T08:56:16.146Z,25.10
2018-09-21T08:57:33.083Z,25.00
2018-09-21T08:58:50.989Z,25.10
2018-09-21T09:00:09.713Z,25.10
2018-09-21T09:01:30.087Z,25.10
2018-09-21T09:02:47.727Z,25.20
2018-09-21T09:04:04.436Z,25.20
2018-09-21T09:05:32.887Z,25.20
2018-09-21T09:06:49.951Z,25.20
2018-09-21T09:08:11.869Z,25.20
2018-09-21T09:09:30.269Z,25.20
2018-09-21T09:10:53.083Z,25.20
2018-09-21T09:12:15.305Z,25.20
2018-09-21T09:13:34.965Z,25.20
2018-09-21T09:14:52.809Z,25.20
2018-09-21T09:16:10.938Z,25.20
2018-09-21T09:17:32.137Z,25.20
2018-09-21T09:18:57.369Z,25.20
2018-09-21T09:20:21.359Z,25.20
2018-09-21T09:21:38.478Z,25.20
2018-09-21T09:22:56.863Z,25.30
2018-09-21T09:24:21.245Z,25.20
2018-09-21T09:27:02.010Z,25.20
2018-09-21T09:28:22.209Z,25.20
2018-09-21T09:29:42.852Z,25.20
2018-09-21T09:31:05.023Z,25.20
2018-09-21T09:32:29.158Z,25.20
2018-09-21T09:33:45.900Z,25.20
2018-09-21T09:35:03.372Z,25.20
2018-09-21T09:36:21.254Z,25.20
2018-09-21T09:37:40.473Z,25.20
2018-09-21T09:38:57.853Z,25.20
2018-09-21T09:40:21.237Z,25.20
2018-09-21T09:41:38.514Z,25.30
2018-09-21T09:42:57.598Z,25.20
2018-09-21T09:44:14.908Z,25.30
2018-09-21T09:45:38.910Z,25.30
2018-09-21T09:46:56.919Z,25.30
2018-09-21T09:48:15.153Z,25.30
2018-09-21T09:49:46.870Z,25.30
2018-09-21T09:51:07.186Z,25.30
2018-09-21T09:52:25.057Z,25.30
2018-09-21T09:53:42.711Z,25.30
2018-09-21T09:55:02.043Z,25.30
2018-09-21T09:56:24.488Z,25.20
2018-09-21T09:57:42.905Z,25.20
2018-09-21T09:59:01.662Z,25.30
2018-09-21T10:00:23.867Z,25.30
2018-09-21T10:01:43.548Z,25.30
2018-09-21T10:03:01.804Z,25.30
2018-09-21T10:04:20.540Z,25.30
2018-09-21T10:05:43.469Z,25.30
2018-09-21T10:07:01.171Z,25.30
2018-09-21T10:08:20.949Z,25.20
2018-09-21T10:09:38.866Z,25.20
2018-09-21T10:10:57.775Z,25.20
2018-09-21T10:12:15.059Z,25.20
2018-09-21T10:13:40.337Z,25.20
2018-09-21T10:14:57.378Z,25.20
2018-09-21T10:16:18.719Z,25.20
2018-09-21T10:17:40.376Z,25.20
2018-09-21T10:20:21.970Z,25.30
2018-09-21T10:21:40.228Z,25.30
2018-09-21T10:23:00.953Z,25.30
2018-09-21T10:24:19.650Z,25.30
2018-09-21T10:25:36.923Z,25.20
2018-09-21T10:26:55.276Z,25.30
2018-09-21T10:28:13.567Z,25.30
2018-09-21T10:29:35.922Z,25.30
2018-09-21T10:30:53.323Z,25.30
2018-09-21T10:32:12.183Z,25.30
2018-09-21T10:33:29.100Z,25.30
2018-09-21T10:34:46.563Z,25.30
2018-09-21T10:36:13.630Z,25.30
2018-09-21T10:37:35.288Z,25.20
2018-09-21T10:38:58.169Z,25.20
2018-09-21T10:40:16.136Z,25.30
2018-09-21T10:41:34.792Z,25.20
2018-09-21T10:42:54.810Z,25.30
2018-09-21T10:44:17.134Z,25.30
2018-09-21T10:45:37.647Z,25.30
2018-09-21T10:46:54.490Z,25.30
2018-09-21T10:48:11.660Z,25.30
2018-09-21T10:49:30.868Z,25.30
2018-09-21T10:52:11.619Z,25.20
2018-09-21T10:53:29.050Z,25.20
2018-09-21T10:54:50.594Z,25.20
2018-09-21T10:56:12.777Z,25.30
2018-09-21T10:57:31.240Z,25.30
2018-09-21T10:58:48.904Z,25.30
2018-09-21T11:00:07.652Z,25.30
2018-09-21T11:01:25.958Z,25.30
2018-09-21T11:02:44.698Z,25.30
2018-09-21T11:04:04.146Z,25.30
2018-09-21T11:05:23.024Z,25.40
2018-09-21T11:06:42.446Z,25.30
2018-09-21T11:08:02.681Z,25.40
2018-09-21T11:09:21.054Z,25.40
2018-09-21T11:10:40.236Z,25.40
2018-09-21T11:11:57.237Z,25.40
2018-09-21T11:13:14.890Z,25.40
2018-09-21T11:14:31.550Z,25.30
2018-09-21T11:15:48.858Z,25.30
2018-09-21T11:17:07.790Z,25.40
2018-09-21T11:18:25.718Z,25.40
2018-09-21T11:21:09.221Z,25.30
2018-09-21T11:23:54.434Z,25.30
2018-09-21T11:25:11.708Z,25.20
2018-09-21T11:26:29.531Z,25.30
2018-09-21T11:27:47.601Z,25.30
2018-09-21T11:30:35.450Z,25.30
2018-09-21T11:31:58.611Z,25.30
2018-09-21T11:33:15.694Z,25.30
2018-09-21T11:34:37.895Z,25.30
2018-09-21T11:35:55.793Z,25.30
2018-09-21T11:37:13.620Z,25.30
2018-09-21T11:38:30.362Z,25.30
2018-09-21T11:39:47.201Z,25.40
2018-09-21T11:41:06.571Z,25.40
2018-09-21T11:42:44.901Z,25.40
2018-09-21T11:44:03.887Z,25.40
2018-09-21T11:45:22.679Z,25.40
2018-09-21T11:46:42.692Z,25.40
2018-09-21T11:48:02.875Z,25.30
2018-09-21T11:49:20.190Z,25.30
2018-09-21T11:50:37.240Z,25.30
2018-09-21T11:51:54.130Z,25.40
2018-09-21T11:53:15.058Z,25.40
2018-09-21T11:54:36.898Z,25.40
2018-09-21T11:55:59.210Z,25.30
2018-09-21T11:57:22.853Z,25.30
2018-09-21T11:58:44.585Z,25.30
2018-09-21T12:00:06.404Z,25.30
2018-09-21T12:01:25.372Z,25.30
2018-09-21T12:02:47.803Z,25.30
2018-09-21T12:04:05.089Z,25.30
2018-09-21T12:05:22.408Z,25.30
2018-09-21T12:06:40.521Z,25.30
2018-09-21T12:07:58.095Z,25.30
2018-09-21T12:09:15.949Z,25.30
2018-09-21T12:10:34.674Z,25.30
2018-09-21T12:11:56.284Z,25.40
2018-09-21T12:13:14.990Z,25.40
2018-09-21T12:14:34.287Z,25.40
2018-09-21T12:15:53.779Z,25.40
2018-09-21T12:17:13.571Z,25.40
2018-09-21T12:18:31.810Z,25.40
2018-09-21T12:19:55.304Z,25.40
2018-09-21T12:21:13.410Z,25.40
2018-09-21T12:22:31.729Z,25.30
2018-09-21T12:23:50.227Z,25.30
2018-09-21T12:25:08.803Z,25.40
2018-09-21T12:26:33.236Z,25.40
2018-09-21T12:27:52.927Z,25.30
2018-09-21T12:29:11.232Z,25.20
2018-09-21T12:30:28.717Z,25.20
2018-09-21T12:31:48.037Z,25.10
2018-09-21T12:33:05.575Z,25.10
2018-09-21T12:34:25.061Z,25.10
2018-09-21T12:35:45.775Z,25.10
2018-09-21T12:37:31.749Z,25.10
2018-09-21T12:38:56.296Z,25.20
2018-09-21T12:40:16.700Z,25.20
2018-09-21T12:41:34.934Z,25.10
2018-09-21T12:42:54.516Z,25.20
2018-09-21T12:44:18.407Z,25.10
2018-09-21T12:45:36.779Z,25.10
2018-09-21T12:46:54.860Z,25.10
2018-09-21T12:48:13.711Z,25.20
2018-09-21T12:49:36.471Z,25.20
2018-09-21T12:50:54.681Z,25.20
2018-09-21T12:52:14.849Z,25.10
2018-09-21T12:53:32.984Z,25.10
2018-09-21T12:54:52.141Z,25.20
2018-09-21T12:56:09.941Z,25.20
2018-09-21T12:57:27.642Z,25.10
2018-09-21T12:58:45.236Z,25.10
2018-09-21T13:00:04.334Z,25.20
2018-09-21T13:01:22.462Z,25.10
2018-09-21T13:02:42.274Z,25.20
2018-09-21T13:04:05.730Z,25.20
2018-09-21T13:05:23.985Z,25.20
2018-09-21T13:06:42.852Z,25.10
2018-09-21T13:07:59.759Z,25.10
2018-09-21T13:09:19.028Z,25.10
2018-09-21T13:10:37.158Z,25.20
2018-09-21T13:11:55.042Z,25.10
2018-09-21T13:13:12.236Z,25.10
2018-09-21T13:14:29.712Z,25.20
2018-09-21T13:15:47.847Z,25.10
2018-09-21T13:17:07.513Z,25.20
2018-09-21T13:18:25.482Z,25.10
2018-09-21T13:19:43.186Z,25.10
2018-09-21T13:21:00.672Z,25.10
2018-09-21T13:22:20.248Z,25.10
2018-09-21T13:23:39.084Z,25.10
2018-09-21T13:24:57.095Z,25.10
2018-09-21T13:26:16.656Z,25.20
2018-09-21T13:27:34.209Z,25.20
2018-09-21T13:28:51.419Z,25.10
2018-09-21T13:30:09.950Z,25.20
2018-09-21T13:31:27.785Z,25.20
2018-09-21T13:32:49.837Z,25.20
2018-09-21T13:34:07.271Z,25.20
2018-09-21T13:35:24.833Z,25.20
2018-09-21T13:36:42.365Z,25.20
2018-09-21T13:38:00.839Z,25.20
2018-09-21T13:39:19.659Z,25.20
2018-09-21T13:40:37.780Z,25.20
2018-09-21T13:41:55.236Z,25.20
2018-09-21T13:43:15.058Z,25.20
2018-09-21T13:44:32.606Z,25.20
2018-09-21T13:45:52.364Z,25.20
2018-09-21T13:47:12.672Z,25.20
2018-09-21T13:48:30.516Z,25.20
2018-09-21T13:49:51.448Z,25.20
2018-09-21T13:51:09.744Z,25.30
2018-09-21T13:52:28.338Z,25.20
2018-09-21T13:53:48.597Z,25.20
2018-09-21T13:55:11.776Z,25.20
2018-09-21T13:56:29.986Z,25.20
2018-09-21T13:57:48.283Z,25.20
2018-09-21T13:59:05.657Z,25.20
2018-09-21T14:00:26.077Z,25.20
2018-09-21T14:01:45.463Z,25.20
2018-09-21T14:03:04.207Z,25.20
2018-09-21T14:04:22.744Z,25.20
2018-09-21T14:05:43.666Z,25.20
2018-09-21T14:07:02.140Z,25.30
2018-09-21T14:08:21.239Z,25.20
2018-09-21T14:09:41.071Z,25.20
2018-09-21T14:10:58.545Z,25.20
2018-09-21T14:12:15.870Z,25.30
2018-09-21T14:13:34.239Z,25.20
2018-09-21T14:14:53.065Z,25.20
2018-09-21T14:16:18.497Z,25.30
2018-09-21T14:17:37.180Z,25.30
2018-09-21T14:19:03.687Z,25.20
2018-09-21T14:20:20.818Z,25.10
2018-09-21T14:21:39.206Z,25.10
2018-09-21T14:22:56.330Z,25.10
2018-09-21T14:24:13.995Z,25.10
2018-09-21T14:25:32.348Z,25.10
2018-09-21T14:26:49.786Z,25.10
2018-09-21T14:28:08.358Z,25.10
2018-09-21T14:29:26.499Z,25.10
2018-09-21T14:30:44.684Z,25.20
2018-09-21T14:32:08.171Z,25.20
2018-09-21T14:33:25.960Z,25.20
2018-09-21T14:34:49.041Z,25.20
2018-09-21T14:36:08.161Z,25.20
2018-09-21T14:37:26.853Z,25.20
2018-09-21T14:38:47.075Z,25.20
2018-09-21T14:40:05.878Z,25.10
2018-09-21T14:41:23.321Z,25.00
2018-09-21T14:44:07.122Z,24.90
2018-09-21T14:45:25.071Z,24.90
2018-09-21T14:46:44.392Z,24.90
2018-09-21T14:48:01.561Z,24.90
2018-09-21T14:49:18.856Z,24.80
2018-09-21T14:50:35.976Z,24.70
2018-09-21T14:51:55.673Z,24.60
2018-09-21T14:53:12.435Z,24.50
2018-09-21T14:54:31.726Z,24.50
2018-09-21T14:56:12.827Z,24.50
2018-09-21T14:57:30.452Z,24.40
2018-09-21T14:58:48.333Z,24.40
2018-09-21T15:00:06.589Z,24.40
2018-09-21T15:01:25.776Z,24.40
2018-09-21T15:02:42.890Z,24.40
2018-09-21T15:04:00.225Z,24.40
2018-09-21T15:05:18.911Z,24.50
2018-09-21T15:06:36.672Z,24.40
2018-09-21T15:07:55.047Z,24.40
2018-09-21T15:09:14.611Z,24.40
2018-09-21T15:10:33.865Z,24.20
2018-09-21T15:11:52.991Z,23.90
2018-09-21T15:13:10.828Z,23.80
2018-09-21T15:14:29.396Z,23.90
2018-09-21T15:15:47.343Z,23.70
2018-09-21T15:17:05.436Z,23.20
2018-09-21T15:18:23.250Z,23.30
2018-09-21T15:19:41.224Z,23.30
2018-09-21T15:21:00.094Z,23.40
2018-09-21T15:22:18.083Z,23.40
2018-09-21T15:23:35.291Z,23.40
2018-09-21T15:24:54.394Z,23.40
2018-09-21T15:26:23.267Z,23.30
2018-09-21T15:27:40.516Z,23.20
2018-09-21T15:28:57.984Z,23.20
2018-09-21T15:30:15.485Z,23.20
2018-09-21T15:31:39.543Z,23.10
2018-09-21T15:32:56.331Z,23.00
2018-09-21T15:34:13.190Z,22.80
2018-09-21T15:35:30.699Z,22.60
2018-09-21T15:36:47.686Z,22.70
2018-09-21T15:38:05.328Z,22.40
2018-09-21T15:39:23.324Z,22.40
2018-09-21T15:40:40.035Z,22.40
2018-09-21T15:41:57.981Z,22.40
2018-09-21T15:43:16.106Z,22.30
2018-09-21T15:44:33.729Z,22.20
2018-09-21T15:45:51.489Z,22.20
2018-09-21T15:47:09.088Z,22.10
2018-09-21T15:48:32.165Z,22.00
2018-09-21T15:49:50.178Z,22.00
2018-09-21T15:51:07.962Z,22.00
2018-09-21T15:52:25.251Z,22.10
2018-09-21T15:53:43.076Z,22.00
2018-09-21T15:55:00.708Z,21.90
2018-09-21T15:56:18.593Z,22.00
2018-09-21T15:57:35.803Z,22.10
2018-09-21T15:58:54.703Z,22.20
2018-09-21T16:00:12.466Z,22.20
2018-09-21T16:01:30.202Z,21.90
2018-09-21T16:02:47.585Z,21.80
2018-09-21T16:04:05.265Z,22.00
2018-09-21T16:05:22.028Z,22.10
2018-09-21T16:06:38.922Z,22.20
2018-09-21T16:07:55.717Z,21.90
2018-09-21T16:09:12.438Z,22.00
2018-09-21T16:10:29.508Z,22.10
2018-09-21T16:11:46.107Z,21.80
2018-09-21T16:13:02.787Z,21.60
2018-09-21T16:14:19.726Z,21.90
2018-09-21T16:16:02.534Z,21.90
2018-09-21T16:17:20.543Z,21.60
2018-09-21T16:18:38.057Z,21.70
2018-09-21T16:19:54.746Z,22.20
2018-09-21T16:21:11.355Z,22.60
2018-09-21T16:22:28.210Z,22.90
2018-09-21T16:23:45.743Z,23.00
2018-09-21T16:25:02.812Z,22.90
2018-09-21T16:26:19.743Z,22.80
2018-09-21T16:27:37.728Z,22.60
2018-09-21T16:28:55.051Z,22.60
2018-09-21T16:30:13.355Z,22.60
2018-09-21T16:31:30.315Z,22.80
2018-09-21T16:32:48.288Z,23.00
2018-09-21T16:34:05.326Z,23.20
2018-09-21T16:35:22.714Z,23.30
2018-09-21T16:36:39.458Z,23.40
2018-09-21T16:37:56.059Z,23.50
2018-09-21T16:39:13.304Z,23.60
2018-09-21T16:40:30.437Z,23.60
2018-09-21T16:41:47.356Z,23.70
2018-09-21T16:43:05.074Z,23.80
2018-09-21T16:44:22.792Z,23.80
2018-09-21T16:45:40.497Z,23.80
2018-09-21T16:47:00.098Z,23.80
2018-09-21T16:48:16.833Z,23.80
2018-09-21T16:49:33.682Z,23.70
2018-09-21T16:50:51.183Z,23.70
2018-09-21T16:52:08.996Z,23.60
2018-09-21T16:53:26.144Z,23.70
2018-09-21T16:54:43.474Z,23.60
2018-09-21T16:56:00.107Z,23.60
2018-09-21T16:57:17.068Z,23.60
2018-09-21T16:58:33.858Z,23.60
2018-09-21T16:59:50.696Z,23.60
2018-09-21T17:01:07.334Z,23.50
2018-09-21T17:02:24.107Z,23.40
2018-09-21T17:03:41.146Z,23.30
2018-09-21T17:04:58.445Z,23.30
2018-09-21T17:06:15.384Z,23.20
2018-09-21T17:07:32.776Z,23.10
2018-09-21T17:08:49.499Z,23.00
2018-09-21T17:10:06.289Z,23.10
2018-09-21T17:11:24.407Z,23.10
2018-09-21T17:12:41.695Z,23.10